createdAt,value
2019-05-17T00:00:58.771Z,97700.00
2019-05-17T00:06:06.908Z,97693.00
2019-05-17T00:11:16.881Z,97687.00
2019-05-17T00:16:26.683Z,97685.00
2019-05-17T00:21:33.611Z,97681.00
2019-05-17T00:26:41.803Z,97679.00
2019-05-17T00:31:49.773Z,97677.00
2019-05-17T00:36:59.084Z,97666.00
2019-05-17T00:42:07.306Z,97662.00
2019-05-17T00:47:16.986Z,97669.00
2019-05-17T00:52:23.826Z,97668.00
2019-05-17T00:57:31.208Z,97659.00
2019-05-17T01:02:38.701Z,97649.00
2019-05-17T01:07:47.258Z,97645.00
2019-05-17T01:12:54.820Z,97645.00
2019-05-17T01:18:03.102Z,97646.00
2019-05-17T01:23:11.488Z,97632.00
2019-05-17T01:28:19.421Z,97627.00
2019-05-17T01:33:28.037Z,97643.00
2019-05-17T01:38:37.630Z,97650.00
2019-05-17T01:43:47.283Z,97633.00
2019-05-17T01:48:54.321Z,97632.00
2019-05-17T01:54:02.719Z,97626.00
2019-05-17T01:59:11.205Z,97632.00
2019-05-17T02:04:18.900Z,97626.00
2019-05-17T02:09:37.140Z,97625.00
2019-05-17T02:14:37.362Z,97618.00
2019-05-17T02:19:46.609Z,97602.00
2019-05-17T02:24:56.723Z,97607.00
2019-05-17T02:30:08.103Z,97604.00
2019-05-17T02:35:18.964Z,97599.00
2019-05-17T02:40:26.572Z,97594.00
2019-05-17T02:45:36.394Z,97587.00
2019-05-17T02:50:48.150Z,97592.00
2019-05-17T02:55:54.504Z,97580.00
2019-05-17T03:01:04.205Z,97586.00
2019-05-17T03:06:32.892Z,97586.00
2019-05-17T03:12:02.986Z,97586.00
2019-05-17T03:17:13.802Z,97596.00
2019-05-17T03:22:22.968Z,97602.00
2019-05-17T03:27:33.503Z,97596.00
2019-05-17T03:32:46.888Z,97596.00
2019-05-17T03:37:53.268Z,97596.00
2019-05-17T03:43:02.748Z,97590.00
2019-05-17T03:48:12.955Z,97582.00
2019-05-17T03:53:22.902Z,97595.00
2019-05-17T03:58:33.260Z,97597.00
2019-05-17T04:03:43.118Z,97601.00
2019-05-17T04:08:48.949Z,97609.00
2019-05-17T04:13:56.352Z,97597.00
2019-05-17T04:19:05.393Z,97604.00
2019-05-17T04:24:14.039Z,97610.00
2019-05-17T04:29:22.652Z,97607.00
2019-05-17T04:34:33.396Z,97600.00
2019-05-17T04:39:57.589Z,97601.00
2019-05-17T04:45:12.459Z,97592.00
2019-05-17T04:50:36.943Z,97605.00
2019-05-17T04:55:49.167Z,97601.00
2019-05-17T05:00:56.644Z,97598.00
2019-05-17T05:06:06.119Z,97598.00
2019-05-17T05:11:13.649Z,97589.00
2019-05-17T05:16:23.070Z,97586.00
2019-05-17T05:21:32.354Z,97581.00
2019-05-17T05:26:57.875Z,97582.00
2019-05-17T05:32:06.284Z,97584.00
2019-05-17T05:37:14.791Z,97588.00
2019-05-17T05:42:22.723Z,97586.00
2019-05-17T05:47:32.228Z,97588.00
2019-05-17T05:52:42.188Z,97569.00
2019-05-17T05:57:52.202Z,97579.00
2019-05-17T06:03:04.027Z,97570.00
2019-05-17T06:08:13.305Z,97562.00
2019-05-17T06:13:27.338Z,97566.00
2019-05-17T06:18:35.565Z,97562.00
2019-05-17T06:23:44.977Z,97576.00
2019-05-17T06:28:52.506Z,97578.00
2019-05-17T06:34:02.116Z,97582.00
2019-05-17T06:39:11.700Z,97572.00
2019-05-17T06:44:21.645Z,97573.00
2019-05-17T06:49:31.820Z,97573.00
2019-05-17T06:54:41.922Z,97570.00
2019-05-17T06:59:49.760Z,97563.00
2019-05-17T07:05:10.266Z,97556.00
2019-05-17T07:10:20.469Z,97548.00
2019-05-17T07:15:43.301Z,97550.00
2019-05-17T07:20:39.862Z,97545.00
2019-05-17T07:25:50.383Z,97548.00
2019-05-17T07:30:59.679Z,97560.00
2019-05-17T07:36:10.142Z,97538.00
2019-05-17T07:41:20.271Z,97541.00
2019-05-17T07:46:30.232Z,97537.00
2019-05-17T07:51:39.606Z,97538.00
2019-05-17T07:56:50.442Z,97539.00
2019-05-17T08:02:16.167Z,97530.00
2019-05-17T08:07:26.301Z,97537.00
2019-05-17T08:12:33.994Z,97525.00
2019-05-17T08:17:42.375Z,97517.00
2019-05-17T08:22:52.246Z,97516.00
2019-05-17T08:28:01.224Z,97516.00
2019-05-17T08:33:10.790Z,97510.00
2019-05-17T08:38:20.564Z,97501.00
2019-05-17T08:43:41.784Z,97499.00
2019-05-17T08:48:40.167Z,97505.00
2019-05-17T08:53:51.191Z,97492.00
2019-05-17T08:59:01.431Z,97484.00
2019-05-17T09:04:09.336Z,97481.00
2019-05-17T09:09:17.499Z,97485.00
2019-05-17T09:14:25.005Z,97480.00
2019-05-17T09:19:33.905Z,97476.00
2019-05-17T09:24:50.180Z,97476.00
2019-05-17T09:30:00.070Z,97477.00
2019-05-17T09:35:25.097Z,97466.00
2019-05-17T09:40:51.609Z,97474.00
2019-05-17T09:46:10.626Z,97459.00
2019-05-17T09:51:19.696Z,97475.00
2019-05-17T09:56:47.104Z,97464.00
2019-05-17T10:02:14.115Z,97454.00
2019-05-17T10:07:23.922Z,97456.00
2019-05-17T10:12:35.099Z,97451.00
2019-05-17T10:17:44.591Z,97442.00
2019-05-17T10:22:53.399Z,97441.00
2019-05-17T10:28:01.407Z,97435.00
2019-05-17T10:33:10.597Z,97449.00
2019-05-17T10:38:20.265Z,97451.00
2019-05-17T10:43:29.895Z,97448.00
2019-05-17T10:48:55.395Z,97450.00
2019-05-17T10:54:05.560Z,97452.00
2019-05-17T10:59:16.304Z,97448.00
2019-05-17T11:04:29.848Z,97453.00
2019-05-17T11:09:55.647Z,97450.00
2019-05-17T11:15:15.976Z,97449.00
2019-05-17T11:20:42.719Z,97455.00
2019-05-17T11:25:51.186Z,97449.00
2019-05-17T11:31:01.225Z,97443.00
2019-05-17T11:36:08.894Z,97453.00
2019-05-17T11:41:21.584Z,97439.00
2019-05-17T11:46:36.210Z,97435.00
2019-05-17T11:51:40.918Z,97428.00
2019-05-17T11:56:49.917Z,97421.00
2019-05-17T12:02:16.375Z,97423.00
2019-05-17T12:07:43.703Z,97411.00
2019-05-17T12:13:06.819Z,97412.00
2019-05-17T12:18:19.748Z,97421.00
2019-05-17T12:23:34.319Z,97417.00
2019-05-17T12:28:43.546Z,97420.00
2019-05-17T12:34:07.298Z,97419.00
2019-05-17T12:39:18.560Z,97416.00
2019-05-17T12:44:30.812Z,97427.00
2019-05-17T12:49:38.478Z,97415.00
2019-05-17T12:54:49.655Z,97415.00
2019-05-17T12:59:58.348Z,97401.00
2019-05-17T13:05:08.841Z,97397.00
2019-05-17T13:10:19.002Z,97401.00
2019-05-17T13:15:26.557Z,97406.00
2019-05-17T13:20:35.108Z,97404.00
2019-05-17T13:25:42.783Z,97396.00
2019-05-17T13:30:50.726Z,97399.00
2019-05-17T13:35:58.564Z,97396.00
2019-05-17T13:41:07.624Z,97386.00
2019-05-17T13:46:15.930Z,97381.00
2019-05-17T13:51:24.065Z,97383.00
2019-05-17T13:56:33.734Z,97379.00
2019-05-17T14:01:44.288Z,97370.00
2019-05-17T14:06:52.108Z,97365.00
2019-05-17T14:12:00.319Z,97367.00
2019-05-17T14:17:09.879Z,97368.00
2019-05-17T14:22:17.260Z,97372.00
2019-05-17T14:27:25.747Z,97373.00
2019-05-17T14:32:34.349Z,97379.00
2019-05-17T14:37:42.034Z,97370.00
2019-05-17T14:42:57.957Z,97354.00
2019-05-17T14:48:05.714Z,97360.00
2019-05-17T14:53:15.360Z,97361.00
2019-05-17T14:58:22.759Z,97354.00
2019-05-17T15:03:30.674Z,97351.00
2019-05-17T15:08:42.006Z,97351.00
2019-05-17T15:13:50.613Z,97353.00
2019-05-17T15:18:59.958Z,97354.00
2019-05-17T15:24:08.780Z,97335.00
2019-05-17T15:29:16.287Z,97330.00
2019-05-17T15:34:24.383Z,97344.00
2019-05-17T15:39:34.516Z,97338.00
2019-05-17T15:44:41.910Z,97323.00
2019-05-17T15:49:49.324Z,97331.00
2019-05-17T15:54:57.603Z,97342.00
2019-05-17T16:00:09.121Z,97339.00
2019-05-17T16:05:18.005Z,97335.00
2019-05-17T16:10:25.519Z,97328.00
2019-05-17T16:15:32.825Z,97317.00
2019-05-17T16:20:40.810Z,97317.00
2019-05-17T16:25:51.173Z,97312.00
2019-05-17T16:31:00.999Z,97321.00
2019-05-17T16:36:10.391Z,97317.00
2019-05-17T16:41:32.051Z,97324.00
2019-05-17T16:46:40.506Z,97306.00
2019-05-17T16:51:49.818Z,97308.00
2019-05-17T16:56:57.280Z,97309.00
2019-05-17T17:02:05.923Z,97307.00
2019-05-17T17:07:14.801Z,97305.00
2019-05-17T17:12:23.615Z,97314.00
2019-05-17T17:17:31.905Z,97308.00
2019-05-17T17:22:42.112Z,97311.00
2019-05-17T17:27:50.018Z,97321.00
2019-05-17T17:32:57.447Z,97318.00
2019-05-17T17:38:06.889Z,97314.00
2019-05-17T17:43:15.990Z,97319.00
2019-05-17T17:48:23.241Z,97316.00
2019-05-17T17:53:32.125Z,97313.00
2019-05-17T17:58:40.757Z,97316.00
2019-05-17T18:03:47.963Z,97316.00
2019-05-17T18:09:14.252Z,97315.00
2019-05-17T18:14:22.512Z,97316.00
2019-05-17T18:19:29.845Z,97324.00
2019-05-17T18:24:47.311Z,97324.00
2019-05-17T18:30:12.919Z,97326.00
2019-05-17T18:35:21.214Z,97328.00
2019-05-17T18:40:31.134Z,97325.00
2019-05-17T18:45:39.290Z,97322.00
2019-05-17T18:50:49.836Z,97323.00
2019-05-17T18:55:57.098Z,97318.00
2019-05-17T19:01:05.481Z,97329.00
2019-05-17T19:06:13.746Z,97326.00
2019-05-17T19:11:31.655Z,97331.00
2019-05-17T19:16:39.152Z,97323.00
2019-05-17T19:21:46.962Z,97332.00
2019-05-17T19:26:54.331Z,97319.00
2019-05-17T19:32:02.903Z,97320.00
2019-05-17T19:37:29.050Z,97332.00
2019-05-17T19:42:47.541Z,97332.00
2019-05-17T19:47:54.848Z,97323.00
2019-05-17T19:53:03.015Z,97327.00
2019-05-17T19:58:10.269Z,97321.00
2019-05-17T20:03:18.179Z,97322.00
2019-05-17T20:08:26.602Z,97321.00
2019-05-17T20:13:34.835Z,97314.00
2019-05-17T20:18:42.775Z,97312.00
2019-05-17T20:23:51.379Z,97301.00
2019-05-17T20:29:00.477Z,97308.00
2019-05-17T20:34:09.759Z,97308.00
2019-05-17T20:39:17.305Z,97305.00
2019-05-17T20:44:24.637Z,97309.00
2019-05-17T20:49:32.000Z,97296.00
2019-05-17T20:54:42.046Z,97300.00
2019-05-17T20:59:50.268Z,97298.00
2019-05-17T21:04:57.432Z,97307.00
2019-05-17T21:10:07.509Z,97303.00
2019-05-17T21:15:14.955Z,97294.00
2019-05-17T21:20:22.840Z,97286.00
2019-05-17T21:25:30.131Z,97301.00
2019-05-17T21:30:38.284Z,97295.00
2019-05-17T21:35:47.560Z,97293.00
2019-05-17T21:41:03.250Z,97303.00
2019-05-17T21:46:11.266Z,97299.00
2019-05-17T21:51:20.091Z,97299.00
2019-05-17T21:56:27.528Z,97297.00
2019-05-17T22:01:36.499Z,97294.00
2019-05-17T22:06:48.829Z,97293.00
2019-05-17T22:12:01.971Z,97283.00
2019-05-17T22:17:11.667Z,97283.00
2019-05-17T22:22:19.489Z,97298.00
2019-05-17T22:27:26.752Z,97289.00
2019-05-17T22:32:35.227Z,97285.00
2019-05-17T22:37:44.931Z,97278.00
2019-05-17T22:42:52.266Z,97276.00
2019-05-17T23:08:27.630Z,97271.00
2019-05-17T23:13:37.420Z,97262.00
2019-05-17T23:18:53.046Z,97261.00
2019-05-17T23:24:01.519Z,97243.00
2019-05-17T23:29:11.923Z,97255.00
2019-05-17T23:34:19.840Z,97252.00
2019-05-17T23:39:45.220Z,97237.00
2019-05-17T23:44:55.470Z,97232.00
2019-05-17T23:50:02.860Z,97238.00
2019-05-17T23:55:11.188Z,97239.00
